createdAt,value
2023-04-01T00:01:59.094Z,97000.59
2023-04-01T00:04:31.414Z,97001.20
2023-04-01T00:07:14.971Z,97003.40
2023-04-01T00:10:09.103Z,96994.90
2023-04-01T00:13:01.404Z,96989.88
2023-04-01T00:15:54.627Z,96990.20
2023-04-01T00:18:48.251Z,96989.45
2023-04-01T00:21:41.303Z,96990.18
2023-04-01T00:24:33.524Z,96991.28
2023-04-01T00:27:25.761Z,96986.99
2023-04-01T00:30:01.151Z,96982.85
2023-04-01T00:32:56.350Z,96983.60
2023-04-01T00:35:48.680Z,96984.98
2023-04-01T00:38:41.537Z,96989.60
2023-04-01T00:41:33.783Z,96989.42
2023-04-01T00:44:22.821Z,96982.81
2023-04-01T00:47:15.082Z,96980.57
2023-04-01T00:49:53.386Z,96978.83
2023-04-01T00:52:45.849Z,96985.81
2023-04-01T00:55:18.963Z,96988.90
2023-04-01T00:57:52.963Z,96994.36
2023-04-01T01:00:46.269Z,96992.27
2023-04-01T01:03:21.342Z,96990.02
2023-04-01T01:06:24.666Z,96989.93
2023-04-01T01:09:27.430Z,96989.52
2023-04-01T01:12:25.114Z,96988.16
2023-04-01T01:15:24.662Z,96986.89
2023-04-01T01:18:28.369Z,96989.15
2023-04-01T01:21:48.515Z,96983.46
2023-04-01T01:25:06.891Z,96985.30
2023-04-01T01:28:09.284Z,96986.17
2023-04-01T01:31:06.534Z,96982.27
2023-04-01T01:34:11.409Z,96981.06
2023-04-01T01:37:07.791Z,96978.66
2023-04-01T01:39:44.401Z,96978.55
2023-04-01T01:42:39.858Z,96977.11
2023-04-01T01:45:34.154Z,96972.85
2023-04-01T01:48:28.903Z,96969.18
2023-04-01T01:51:23.302Z,96963.61
2023-04-01T01:54:18.237Z,96963.08
2023-04-01T01:57:06.535Z,96963.01
2023-04-01T02:00:03.515Z,96963.02
2023-04-01T02:02:56.816Z,96964.80
2023-04-01T02:05:49.847Z,96970.16
2023-04-01T02:08:45.976Z,96968.89
2023-04-01T02:11:45.530Z,96969.86
2023-04-01T02:14:45.545Z,96973.73
2023-04-01T02:17:41.576Z,96976.81
2023-04-01T02:20:34.196Z,96978.29
2023-04-01T02:23:26.514Z,96981.13
2023-04-01T02:26:19.538Z,96982.15
2023-04-01T02:29:13.642Z,96989.39
2023-04-01T02:32:07.596Z,96990.60
2023-04-01T02:35:00.992Z,96991.55
2023-04-01T02:37:54.342Z,96998.45
2023-04-01T02:40:52.122Z,97001.35
2023-04-01T02:43:44.169Z,97002.41
2023-04-01T02:46:36.378Z,97010.65
2023-04-01T02:49:28.462Z,97010.66
2023-04-01T02:52:10.382Z,97006.45
2023-04-01T02:55:04.479Z,97009.09
2023-04-01T02:57:56.528Z,97013.00
2023-04-01T03:00:48.728Z,97008.86
2023-04-01T03:03:41.269Z,97011.70
2023-04-01T03:06:33.337Z,97012.23
2023-04-01T03:09:25.383Z,97012.39
2023-04-01T03:12:17.399Z,97013.49
2023-04-01T03:15:11.780Z,97012.23
2023-04-01T03:18:02.329Z,97009.55
2023-04-01T03:20:39.469Z,97009.39
2023-04-01T03:23:31.467Z,97010.27
2023-04-01T03:26:23.800Z,97007.97
2023-04-01T03:29:16.769Z,97007.30
2023-04-01T03:32:09.054Z,97020.63
2023-04-01T03:35:01.133Z,97016.48
2023-04-01T03:37:55.703Z,97011.23
2023-04-01T03:40:48.173Z,97013.00
2023-04-01T03:43:40.329Z,97013.51
2023-04-01T03:46:32.283Z,97013.07
2023-04-01T03:49:24.309Z,97010.48
2023-04-01T03:52:16.282Z,97011.61
2023-04-01T03:55:09.247Z,97010.72
2023-04-01T03:58:02.961Z,97011.23
2023-04-01T04:00:55.649Z,97007.09
2023-04-01T04:03:48.145Z,97009.00
2023-04-01T04:06:40.209Z,97010.57
2023-04-01T04:09:34.227Z,97010.26
2023-04-01T04:12:26.254Z,97013.84
2023-04-01T04:15:18.818Z,97012.75
2023-04-01T04:18:10.794Z,97010.63
2023-04-01T04:21:02.831Z,97012.63
2023-04-01T04:23:54.833Z,97013.12
2023-04-01T04:26:46.892Z,97014.83
2023-04-01T04:29:39.270Z,97014.63
2023-04-01T04:32:31.859Z,97012.52
2023-04-01T04:35:23.844Z,97012.64
2023-04-01T04:38:16.347Z,97013.02
2023-04-01T04:41:12.848Z,97011.70
2023-04-01T04:44:04.893Z,97012.45
2023-04-01T04:46:58.484Z,97012.82
2023-04-01T04:49:50.658Z,97012.85
2023-04-01T04:52:42.662Z,97016.45
2023-04-01T04:55:34.843Z,97015.67
2023-04-01T04:58:27.427Z,97014.60
2023-04-01T05:01:21.177Z,97017.48
2023-04-01T05:04:13.279Z,97020.60
2023-04-01T05:07:05.359Z,97022.65
2023-04-01T05:09:57.361Z,97022.88
2023-04-01T05:12:49.438Z,97024.16
2023-04-01T05:15:41.564Z,97023.47
2023-04-01T05:18:33.559Z,97028.80
2023-04-01T05:21:25.726Z,97022.79
2023-04-01T05:24:17.886Z,97023.85
2023-04-01T05:27:09.918Z,97025.23
2023-04-01T05:30:02.021Z,97024.11
2023-04-01T05:32:54.205Z,97023.20
2023-04-01T05:35:46.329Z,97022.84
2023-04-01T05:38:38.382Z,97025.13
2023-04-01T05:41:30.522Z,97031.72
2023-04-01T05:44:22.505Z,97030.59
2023-04-01T05:47:14.488Z,97029.89
2023-04-01T05:50:07.146Z,97027.64
2023-04-01T05:52:59.102Z,97029.55
2023-04-01T05:55:51.142Z,97023.30
2023-04-01T05:58:43.827Z,97032.74
2023-04-01T06:01:36.421Z,97029.34
2023-04-01T06:04:31.639Z,97031.70
2023-04-01T06:07:23.494Z,97037.84
2023-04-01T06:10:19.053Z,97038.23
2023-04-01T06:13:05.508Z,97039.92
2023-04-01T06:15:50.212Z,97044.23
2023-04-01T06:18:51.122Z,97046.07
2023-04-01T06:22:06.163Z,97044.77
2023-04-01T06:24:53.019Z,97050.51
2023-04-01T06:27:54.285Z,97052.59
2023-04-01T06:30:40.376Z,97053.19
2023-04-01T06:33:50.673Z,97054.14
2023-04-01T06:36:45.935Z,97053.86
2023-04-01T06:40:05.352Z,97053.94
2023-04-01T06:43:06.557Z,97050.75
2023-04-01T06:45:55.926Z,97051.61
2023-04-01T06:48:44.038Z,97054.63
2023-04-01T06:51:43.094Z,97049.14
2023-04-01T06:54:20.739Z,97052.52
2023-04-01T06:56:59.562Z,97051.25
2023-04-01T06:59:53.196Z,97050.42
2023-04-01T07:02:54.722Z,97056.00
2023-04-01T07:05:33.730Z,97052.98
2023-04-01T07:08:30.135Z,97055.81
2023-04-01T07:11:19.057Z,97056.20
2023-04-01T07:14:01.029Z,97057.59
2023-04-01T07:16:57.571Z,97059.85
2023-04-01T07:19:44.666Z,97062.67
2023-04-01T07:22:40.267Z,97066.77
2023-04-01T07:25:37.549Z,97069.92
2023-04-01T07:28:35.158Z,97071.85
2023-04-01T07:31:51.137Z,97070.95
2023-04-01T07:34:28.215Z,97070.86
2023-04-01T07:37:26.153Z,97072.03
2023-04-01T07:40:28.779Z,97070.14
2023-04-01T07:43:35.110Z,97077.71
2023-04-01T07:46:41.408Z,97076.91
2023-04-01T07:49:22.227Z,97078.37
2023-04-01T07:52:01.670Z,97082.55
2023-04-01T07:55:01.719Z,97089.39
2023-04-01T07:57:44.208Z,97091.78
2023-04-01T08:00:43.365Z,97090.96
2023-04-01T08:03:38.948Z,97089.42
2023-04-01T08:06:27.134Z,97088.83
2023-04-01T08:09:16.009Z,97088.91
2023-04-01T08:12:21.033Z,97091.74
2023-04-01T08:15:23.470Z,97095.98
2023-04-01T08:18:14.465Z,97097.89
2023-04-01T08:21:12.962Z,97098.05
2023-04-01T08:24:19.782Z,97098.63
2023-04-01T08:27:23.879Z,97092.63
2023-04-01T08:30:23.480Z,97098.38
2023-04-01T08:33:21.612Z,97099.15
2023-04-01T08:36:17.714Z,97100.55
2023-04-01T08:39:14.400Z,97099.48
2023-04-01T08:42:28.101Z,97104.33
2023-04-01T08:45:50.496Z,97104.89
2023-04-01T08:48:57.194Z,97102.59
2023-04-01T08:52:13.951Z,97103.29
2023-04-01T08:55:13.235Z,97100.18
2023-04-01T08:58:00.919Z,97101.33
2023-04-01T09:00:59.203Z,97098.54
2023-04-01T09:04:25.999Z,97101.41
2023-04-01T09:07:31.982Z,97101.91
2023-04-01T09:10:40.289Z,97101.73
2023-04-01T09:13:50.613Z,97100.29
2023-04-01T09:16:47.727Z,97103.83
2023-04-01T09:19:43.416Z,97100.39
2023-04-01T09:22:51.466Z,97102.77
2023-04-01T09:25:55.322Z,97102.31
2023-04-01T09:28:58.112Z,97106.27
2023-04-01T09:32:07.255Z,97104.51
2023-04-01T09:35:04.945Z,97105.66
2023-04-01T09:38:12.106Z,97108.91
2023-04-01T09:41:14.728Z,97114.80
2023-04-01T09:44:12.225Z,97112.56
2023-04-01T09:47:21.990Z,97114.79
2023-04-01T09:50:37.925Z,97108.77
2023-04-01T09:53:44.448Z,97114.77
2023-04-01T09:57:06.230Z,97110.02
2023-04-01T10:00:31.462Z,97111.88
2023-04-01T10:03:46.039Z,97110.38
2023-04-01T10:07:15.060Z,97107.59
2023-04-01T10:10:58.094Z,97101.99
2023-04-01T10:14:13.672Z,97101.75
2023-04-01T10:17:09.656Z,97103.77
2023-04-01T10:20:21.176Z,97103.50
2023-04-01T10:23:24.176Z,97107.96
2023-04-01T10:26:38.717Z,97106.86
2023-04-01T10:30:04.054Z,97102.48
2023-04-01T10:33:40.309Z,97100.38
2023-04-01T10:36:49.536Z,97103.73
2023-04-01T10:39:53.705Z,97103.16
2023-04-01T10:43:03.467Z,97103.48
2023-04-01T10:46:17.968Z,97103.06
2023-04-01T10:49:37.451Z,97101.94
2023-04-01T10:53:17.294Z,97106.30
2023-04-01T10:56:45.758Z,97108.17
2023-04-01T11:00:08.306Z,97109.77
2023-04-01T11:03:31.123Z,97109.11
2023-04-01T11:06:55.638Z,97108.23
2023-04-01T11:10:21.841Z,97107.66
2023-04-01T11:13:53.856Z,97107.17
2023-04-01T11:17:12.747Z,97107.92
2023-04-01T11:20:27.675Z,97108.29
2023-04-01T11:23:30.059Z,97108.86
2023-04-01T11:26:35.457Z,97105.02
2023-04-01T11:29:58.841Z,97096.30
2023-04-01T11:33:01.936Z,97092.65
2023-04-01T11:36:07.140Z,97094.70
2023-04-01T11:39:13.499Z,97100.02
2023-04-01T11:42:17.671Z,97099.63
2023-04-01T11:45:24.979Z,97105.27
2023-04-01T11:48:39.551Z,97098.40
2023-04-01T11:51:53.528Z,97097.77
2023-04-01T11:55:05.626Z,97095.76
2023-04-01T11:58:16.173Z,97095.73
2023-04-01T12:01:19.084Z,97100.38
2023-04-01T12:04:44.302Z,97103.39
2023-04-01T12:07:40.722Z,97102.95
2023-04-01T12:10:40.551Z,97103.39
2023-04-01T12:13:42.009Z,97101.82
2023-04-01T12:16:49.110Z,97102.59
2023-04-01T12:19:50.479Z,97102.39
2023-04-01T12:22:51.804Z,97103.84
2023-04-01T12:26:02.235Z,97105.15
2023-04-01T12:29:10.987Z,97108.47
2023-04-01T12:32:11.832Z,97106.00
2023-04-01T12:35:21.244Z,97102.89
2023-04-01T12:38:25.918Z,97104.16
2023-04-01T12:41:26.642Z,97107.14
2023-04-01T12:44:35.090Z,97109.31
2023-04-01T12:47:34.360Z,97112.25
2023-04-01T12:50:27.020Z,97110.11
2023-04-01T12:53:40.410Z,97110.24
2023-04-01T12:56:46.943Z,97109.31
2023-04-01T12:59:46.492Z,97108.73
2023-04-01T13:02:42.376Z,97111.52
2023-04-01T13:06:05.321Z,97109.02
2023-04-01T13:08:55.503Z,97109.80
2023-04-01T13:11:47.466Z,97116.73
2023-04-01T13:14:38.027Z,97120.41
2023-04-01T13:17:19.179Z,97123.96
2023-04-01T13:20:04.891Z,97129.48
2023-04-01T13:23:09.079Z,97132.99
2023-04-01T13:26:15.324Z,97137.20
2023-04-01T13:28:56.035Z,97136.34
2023-04-01T13:31:47.053Z,97136.08
2023-04-01T13:34:57.758Z,97140.20
2023-04-01T13:38:19.283Z,97141.30
2023-04-01T13:41:04.098Z,97143.83
2023-04-01T13:44:04.469Z,97137.14
2023-04-01T13:47:12.600Z,97137.94
2023-04-01T13:50:05.942Z,97138.39
2023-04-01T13:53:01.799Z,97144.92
2023-04-01T13:55:56.730Z,97147.25
2023-04-01T13:59:10.941Z,97154.27
2023-04-01T14:02:19.782Z,97160.61
2023-04-01T14:05:42.111Z,97168.83
2023-04-01T14:09:00.890Z,97172.73
2023-04-01T14:12:01.344Z,97187.92
2023-04-01T14:14:57.822Z,97198.08
2023-04-01T14:17:47.361Z,97202.05
2023-04-01T14:20:31.393Z,97201.04
2023-04-01T14:23:42.649Z,97200.60
2023-04-01T14:27:09.936Z,97197.90
2023-04-01T14:30:17.025Z,97199.33
2023-04-01T14:36:29.414Z,97207.65
2023-04-01T14:39:41.345Z,97211.38
2023-04-01T14:42:56.101Z,97209.16
2023-04-01T14:46:11.191Z,97208.79
2023-04-01T14:49:07.123Z,97208.05
2023-04-01T14:52:05.932Z,97212.55
2023-04-01T14:54:58.548Z,97208.58
2023-04-01T14:58:02.337Z,97207.34
2023-04-01T15:01:08.989Z,97206.77
2023-04-01T15:04:18.098Z,97212.55
2023-04-01T15:07:28.377Z,97210.69
2023-04-01T15:10:37.000Z,97210.56
2023-04-01T15:13:48.107Z,97214.16
2023-04-01T15:16:49.286Z,97213.63
2023-04-01T15:19:55.265Z,97213.59
2023-04-01T15:23:01.147Z,97216.27
2023-04-01T15:26:14.589Z,97216.66
2023-04-01T15:29:33.521Z,97215.61
2023-04-01T15:32:33.872Z,97218.31
2023-04-01T15:35:38.513Z,97218.02
2023-04-01T15:38:34.794Z,97225.16
2023-04-01T15:41:37.865Z,97230.79
2023-04-01T15:44:47.587Z,97232.30
2023-04-01T15:47:44.715Z,97231.36
2023-04-01T15:50:55.501Z,97232.46
2023-04-01T15:54:18.434Z,97235.61
2023-04-01T15:57:32.350Z,97240.29
2023-04-01T16:00:28.224Z,97243.98
2023-04-01T16:03:33.275Z,97248.45
2023-04-01T16:06:25.930Z,97249.94
2023-04-01T16:09:18.585Z,97250.52
2023-04-01T16:12:18.250Z,97253.71
2023-04-01T16:15:06.085Z,97250.05
2023-04-01T16:18:05.715Z,97248.57
2023-04-01T16:20:52.167Z,97255.98
2023-04-01T16:23:30.654Z,97252.86
2023-04-01T16:26:11.766Z,97255.54
2023-04-01T16:28:59.894Z,97255.69
2023-04-01T16:31:45.461Z,97263.67
2023-04-01T16:34:23.325Z,97266.35
2023-04-01T16:37:07.669Z,97272.80
2023-04-01T16:39:56.365Z,97276.57
2023-04-01T16:42:48.763Z,97280.52
2023-04-01T16:45:36.044Z,97280.48
2023-04-01T16:48:45.153Z,97287.55
2023-04-01T16:51:19.077Z,97291.95
2023-04-01T16:54:20.564Z,97296.34
2023-04-01T16:57:25.170Z,97300.98
2023-04-01T17:00:20.698Z,97307.35
2023-04-01T17:03:19.580Z,97308.73
2023-04-01T17:06:26.352Z,97316.27
2023-04-01T17:09:34.089Z,97321.80
2023-04-01T17:12:30.267Z,97326.50
2023-04-01T17:15:13.477Z,97327.06
2023-04-01T17:18:15.425Z,97332.67
2023-04-01T17:21:12.844Z,97337.68
2023-04-01T17:23:55.710Z,97341.56
2023-04-01T17:26:43.443Z,97345.38
2023-04-01T17:29:43.431Z,97347.85
2023-04-01T17:32:40.336Z,97349.13
2023-04-01T17:35:24.038Z,97352.45
2023-04-01T17:38:27.172Z,97357.73
2023-04-01T17:41:28.770Z,97364.17
2023-04-01T17:44:24.666Z,97365.98
2023-04-01T17:47:50.049Z,97367.93
2023-04-01T17:50:39.259Z,97372.88
2023-04-01T17:53:43.908Z,97378.56
2023-04-01T17:56:42.197Z,97385.17
2023-04-01T17:59:40.405Z,97385.20
2023-04-01T18:02:31.592Z,97390.57
2023-04-01T18:05:33.275Z,97395.65
2023-04-01T18:08:42.623Z,97398.72
2023-04-01T18:11:46.752Z,97404.70
2023-04-01T18:15:06.398Z,97408.30
2023-04-01T18:18:13.315Z,97406.63
2023-04-01T18:21:12.571Z,97411.33
2023-04-01T18:24:01.516Z,97417.48
2023-04-01T18:27:17.317Z,97424.60
2023-04-01T18:30:16.747Z,97427.11
2023-04-01T18:33:21.708Z,97432.02
2023-04-01T18:36:21.541Z,97439.27
2023-04-01T18:39:19.108Z,97436.83
2023-04-01T18:42:22.191Z,97442.93
2023-04-01T18:45:23.906Z,97444.52
2023-04-01T18:48:39.699Z,97447.35
2023-04-01T18:51:50.557Z,97451.55
2023-04-01T18:54:49.883Z,97455.35
2023-04-01T18:58:21.333Z,97458.96
2023-04-01T19:01:21.802Z,97457.05
2023-04-01T19:04:23.200Z,97460.12
2023-04-01T19:07:44.711Z,97460.19
2023-04-01T19:10:46.321Z,97466.57
2023-04-01T19:13:48.494Z,97468.72
2023-04-01T19:16:52.484Z,97472.46
2023-04-01T19:19:57.701Z,97476.38
2023-04-01T19:23:11.367Z,97480.23
2023-04-01T19:25:53.482Z,97483.45
2023-04-01T19:28:56.666Z,97483.33
2023-04-01T19:32:07.676Z,97486.24
2023-04-01T19:35:09.155Z,97488.95
2023-04-01T19:38:06.222Z,97489.61
2023-04-01T19:41:03.845Z,97496.90
2023-04-01T19:44:06.997Z,97495.83
2023-04-01T19:47:07.218Z,97497.91
2023-04-01T19:50:08.809Z,97501.66
2023-04-01T19:53:09.155Z,97502.66
2023-04-01T19:56:08.235Z,97504.85
2023-04-01T19:59:06.540Z,97512.06
2023-04-01T20:02:17.324Z,97515.39
2023-04-01T20:05:27.894Z,97520.60
2023-04-01T20:08:27.647Z,97522.60
2023-04-01T20:11:30.505Z,97523.86
2023-04-01T20:14:23.288Z,97527.16
2023-04-01T20:17:04.130Z,97530.92
2023-04-01T20:20:04.441Z,97533.03
2023-04-01T20:23:09.205Z,97531.20
2023-04-01T20:26:08.839Z,97535.78
2023-04-01T20:29:06.993Z,97535.80
2023-04-01T20:31:58.334Z,97536.15
2023-04-01T20:35:04.090Z,97539.97
2023-04-01T20:37:47.926Z,97542.09
2023-04-01T20:40:34.543Z,97551.91
2023-04-01T20:43:45.353Z,97548.41
2023-04-01T20:46:50.533Z,97547.98
2023-04-01T20:49:51.580Z,97547.67
2023-04-01T20:52:51.967Z,97553.58
2023-04-01T20:55:41.244Z,97548.67
2023-04-01T20:58:43.358Z,97547.74
2023-04-01T21:01:28.582Z,97548.68
2023-04-01T21:04:24.383Z,97551.77
2023-04-01T21:07:26.541Z,97559.05
2023-04-01T21:10:19.697Z,97558.70
2023-04-01T21:13:02.589Z,97564.73
2023-04-01T21:16:03.667Z,97567.22
2023-04-01T21:19:11.770Z,97570.92
2023-04-01T21:22:31.460Z,97569.81
2023-04-01T21:25:31.331Z,97568.35
2023-04-01T21:28:32.439Z,97574.73
2023-04-01T21:31:40.725Z,97574.71
2023-04-01T21:34:52.724Z,97576.55
2023-04-01T21:37:47.586Z,97581.06
2023-04-01T21:41:11.721Z,97580.83
2023-04-01T21:44:35.090Z,97582.65
2023-04-01T21:47:58.481Z,97584.21
2023-04-01T21:50:47.139Z,97589.00
2023-04-01T21:54:10.102Z,97585.73
2023-04-01T21:57:38.694Z,97586.64
2023-04-01T22:00:34.343Z,97588.20
2023-04-01T22:04:03.197Z,97593.36
2023-04-01T22:07:02.557Z,97595.98
2023-04-01T22:10:04.729Z,97595.48
2023-04-01T22:13:01.553Z,97593.48
2023-04-01T22:16:06.567Z,97598.92
2023-04-01T22:19:08.401Z,97600.00
2023-04-01T22:22:09.063Z,97603.52
2023-04-01T22:25:09.828Z,97606.73
2023-04-01T22:28:08.810Z,97609.98
2023-04-01T22:31:03.801Z,97609.01
2023-04-01T22:34:05.815Z,97609.52
2023-04-01T22:37:07.541Z,97611.11
2023-04-01T22:40:22.143Z,97611.91
2023-04-01T22:43:17.304Z,97614.25
2023-04-01T22:46:44.884Z,97618.01
2023-04-01T22:49:49.488Z,97621.98
2023-04-01T22:52:42.641Z,97620.48
2023-04-01T22:55:53.387Z,97624.28
2023-04-01T22:58:49.963Z,97623.11
2023-04-01T23:01:47.168Z,97627.05
2023-04-01T23:04:44.336Z,97631.69
2023-04-01T23:07:49.911Z,97631.20
2023-04-01T23:10:47.968Z,97635.95
2023-04-01T23:13:43.774Z,97640.17
2023-04-01T23:16:43.131Z,97642.19
2023-04-01T23:19:42.267Z,97639.84
2023-04-01T23:22:40.655Z,97641.92
2023-04-01T23:25:49.894Z,97642.84
2023-04-01T23:28:51.635Z,97642.73
2023-04-01T23:31:44.588Z,97643.09
2023-04-01T23:34:37.819Z,97646.11
2023-04-01T23:37:17.098Z,97649.83
2023-04-01T23:40:16.152Z,97650.08
2023-04-01T23:43:17.298Z,97653.17
2023-04-01T23:45:52.644Z,97651.80
2023-04-01T23:48:47.778Z,97657.41
2023-04-01T23:51:50.250Z,97659.00
2023-04-01T23:54:26.418Z,97659.73
2023-04-01T23:57:24.090Z,97663.08
